createdAt,value
2019-04-04T09:49:06.022Z,2152.00
2019-04-04T09:50:13.010Z,2104.00
2019-04-04T09:51:06.146Z,2020.00
2019-04-04T09:52:07.510Z,1928.00
2019-04-04T09:53:10.334Z,1852.00
2019-04-04T09:54:07.952Z,1844.00
2019-04-04T09:55:08.075Z,1904.00
2019-04-04T09:56:08.212Z,1992.00
2019-04-04T09:57:08.345Z,2068.00
2019-04-04T09:58:08.489Z,2116.00
2019-04-04T09:59:08.652Z,2156.00
2019-04-04T10:00:09.136Z,2252.00
2019-04-04T10:01:09.043Z,2360.00
2019-04-04T10:02:10.137Z,2412.00
2019-04-04T10:03:10.131Z,2396.00
2019-04-04T10:04:09.498Z,2360.00
2019-04-04T10:05:09.677Z,2340.00
2019-04-04T10:06:10.643Z,2296.00
2019-04-04T10:07:10.013Z,2228.00
2019-04-04T10:08:11.132Z,2192.00
2019-04-04T10:09:15.903Z,2240.00
2019-04-04T10:10:12.617Z,2372.00
2019-04-04T10:11:10.830Z,2548.00
2019-04-04T10:12:10.967Z,2768.00
2019-04-04T10:13:11.105Z,2964.00
2019-04-04T10:14:11.253Z,3160.00
2019-04-04T10:15:11.424Z,3320.00
2019-04-04T10:16:11.614Z,3496.00
2019-04-04T10:17:12.632Z,3628.00
2019-04-04T10:18:12.631Z,3636.00
2019-04-04T10:19:13.173Z,3592.00
2019-04-04T10:20:12.433Z,3552.00
2019-04-04T10:21:12.760Z,3576.00
2019-04-04T10:22:12.758Z,3712.00
2019-04-04T10:23:13.632Z,3940.00
2019-04-04T10:24:13.638Z,4160.00
2019-04-04T10:25:13.661Z,4108.00
2019-04-04T10:26:13.458Z,3856.00
2019-04-04T10:27:13.600Z,3580.00
2019-04-04T10:28:14.632Z,3308.00
2019-04-04T10:29:13.900Z,3092.00
2019-04-04T10:30:14.152Z,2952.00
2019-04-04T10:31:14.293Z,2872.00
2019-04-04T10:32:14.483Z,2768.00
2019-04-04T10:33:14.646Z,2644.00
2019-04-04T10:34:14.800Z,2520.00
2019-04-04T10:35:14.998Z,2392.00
2019-04-04T10:36:15.151Z,2260.00
2019-04-04T10:37:15.670Z,2128.00
2019-04-04T10:38:16.160Z,2032.00
2019-04-04T10:39:28.031Z,1996.00
2019-04-04T10:40:17.913Z,2000.00
2019-04-04T10:41:16.638Z,2060.00
2019-04-04T10:42:16.345Z,2180.00
2019-04-04T10:43:16.513Z,2368.00
2019-04-04T10:44:16.656Z,2632.00
2019-04-04T10:45:16.816Z,2932.00
2019-04-04T10:46:17.191Z,3180.00
2019-04-04T10:47:17.195Z,3380.00
2019-04-04T10:48:17.358Z,3548.00
2019-04-04T10:49:17.497Z,3552.00
2019-04-04T10:50:17.637Z,3356.00
2019-04-04T10:51:17.814Z,3232.00
2019-04-04T10:52:17.958Z,3116.00
2019-04-04T10:53:18.107Z,2972.00
2019-04-04T10:54:18.278Z,2832.00
2019-04-04T10:55:18.477Z,2768.00
2019-04-04T10:56:19.151Z,2744.00
2019-04-04T10:57:19.644Z,2780.00
2019-04-04T10:58:19.063Z,2872.00
2019-04-04T10:59:19.232Z,2896.00
2019-04-04T11:00:19.420Z,2868.00
2019-04-04T11:01:19.661Z,2816.00
2019-04-04T11:02:20.167Z,2700.00
2019-04-04T11:03:20.675Z,2588.00
2019-04-04T11:04:20.054Z,2588.00
2019-04-04T11:05:20.218Z,2676.00
2019-04-04T11:06:20.386Z,2776.00
2019-04-04T11:07:20.568Z,2868.00
2019-04-04T11:08:21.649Z,3060.00
2019-04-04T11:09:21.654Z,3276.00
2019-04-04T11:10:21.078Z,3256.00
2019-04-04T11:11:22.171Z,3044.00
2019-04-04T11:12:21.463Z,2920.00
2019-04-04T11:13:32.903Z,2972.00
2019-04-04T11:14:25.289Z,3068.00
2019-04-04T11:15:23.646Z,3096.00
2019-04-04T11:16:29.982Z,3024.00
2019-04-04T11:17:24.393Z,2948.00
2019-04-04T11:18:22.479Z,2836.00
2019-04-04T11:19:31.015Z,2664.00
2019-04-04T11:20:24.858Z,2492.00
2019-04-04T11:21:22.997Z,2356.00
2019-04-04T11:22:23.179Z,2304.00
2019-04-04T11:23:23.330Z,2404.00
2019-04-04T11:24:23.517Z,2616.00
2019-04-04T11:25:24.644Z,2768.00
2019-04-04T11:26:23.939Z,2732.00
2019-04-04T11:27:24.099Z,2672.00
2019-04-04T11:28:24.302Z,2692.00
2019-04-04T11:29:24.468Z,2712.00
2019-04-04T11:30:24.664Z,2660.00
2019-04-04T11:31:24.871Z,2600.00
2019-04-04T11:32:25.090Z,2524.00
2019-04-04T11:33:25.291Z,2428.00
2019-04-04T11:34:26.145Z,2368.00
2019-04-04T11:35:25.662Z,2296.00
2019-04-04T11:36:25.862Z,2236.00
2019-04-04T11:37:26.078Z,2160.00
2019-04-04T11:38:26.272Z,2008.00
2019-04-04T11:39:27.145Z,1868.00
2019-04-04T11:40:27.642Z,1816.00
2019-04-04T11:41:26.798Z,1808.00
2019-04-04T11:42:27.010Z,1796.00
2019-04-04T11:43:28.157Z,1780.00
2019-04-04T11:44:27.301Z,1788.00
2019-04-04T11:45:27.503Z,1868.00
2019-04-04T11:46:28.169Z,2008.00
2019-04-04T11:47:28.672Z,2152.00
2019-04-04T11:48:27.952Z,2264.00
2019-04-04T11:49:28.653Z,2336.00
2019-04-04T11:50:28.298Z,2392.00
2019-04-04T11:51:28.562Z,2496.00
2019-04-04T11:52:28.616Z,2608.00
2019-04-04T11:53:28.828Z,2596.00
2019-04-04T11:54:28.997Z,2444.00
2019-04-04T11:55:29.204Z,2336.00
2019-04-04T11:56:29.401Z,2352.00
2019-04-04T11:57:29.655Z,2464.00
2019-04-04T11:58:29.798Z,2592.00
2019-04-04T11:59:30.049Z,2672.00
2019-04-04T12:00:30.172Z,2752.00
2019-04-04T12:01:31.142Z,2868.00
2019-04-04T12:02:32.572Z,3048.00
2019-04-04T12:03:31.733Z,3136.00
2019-04-04T12:04:30.910Z,3164.00
2019-04-04T12:05:31.128Z,3208.00
2019-04-04T12:06:31.658Z,3288.00
2019-04-04T12:07:31.475Z,3400.00
2019-04-04T12:08:31.724Z,3396.00
2019-04-04T12:09:31.936Z,3364.00
2019-04-04T12:10:32.106Z,3556.00
2019-04-04T12:11:32.683Z,3824.00
2019-04-04T12:12:32.519Z,3872.00
2019-04-04T12:13:32.693Z,3836.00
2019-04-04T12:14:33.654Z,3832.00
2019-04-04T12:15:33.170Z,3848.00
2019-04-04T12:16:33.242Z,3932.00
2019-04-04T12:17:33.457Z,4100.00
2019-04-04T12:18:33.652Z,4316.00
2019-04-04T12:19:34.677Z,4388.00
2019-04-04T12:20:34.058Z,4364.00
2019-04-04T12:21:35.158Z,4156.00
2019-04-04T12:22:34.458Z,3912.00
2019-04-04T12:23:34.652Z,3680.00
2019-04-04T12:24:34.828Z,3556.00
2019-04-04T12:25:35.668Z,3608.00
2019-04-04T12:26:35.694Z,3860.00
2019-04-04T12:27:35.661Z,4212.00
2019-04-04T12:28:36.152Z,4476.00
2019-04-04T12:29:36.149Z,4580.00
2019-04-04T12:30:35.787Z,4704.00
2019-04-04T12:31:36.642Z,4876.00
2019-04-04T12:32:37.181Z,4916.00
2019-04-04T12:33:37.168Z,4564.00
2019-04-04T12:34:37.166Z,4228.00
2019-04-04T12:35:36.577Z,4088.00
2019-04-04T12:36:37.649Z,4012.00
2019-04-04T12:37:37.654Z,3940.00
2019-04-04T12:38:37.158Z,3888.00
2019-04-04T12:39:37.191Z,3844.00
2019-04-04T12:40:37.341Z,3884.00
2019-04-04T12:41:38.147Z,4040.00
2019-04-04T12:42:38.757Z,4240.00
2019-04-04T12:43:38.178Z,4264.00
2019-04-04T12:44:38.208Z,4160.00
2019-04-04T12:45:38.376Z,4116.00
2019-04-04T12:46:38.544Z,4144.00
2019-04-04T12:47:39.658Z,4416.00
2019-04-04T12:48:38.970Z,4968.00
2019-04-04T12:49:39.137Z,5416.00
2019-04-04T12:50:39.324Z,5788.00
2019-04-04T12:51:39.550Z,5964.00
2019-04-04T12:52:39.727Z,5824.00
2019-04-04T12:53:40.657Z,5540.00
2019-04-04T12:54:41.049Z,5356.00
2019-04-04T12:55:40.205Z,5348.00
2019-04-04T12:56:40.342Z,5300.00
2019-04-04T12:57:40.512Z,5172.00
2019-04-04T12:58:40.642Z,4816.00
2019-04-04T12:59:40.807Z,4292.00
2019-04-04T13:00:40.982Z,3924.00
2019-04-04T13:01:41.199Z,3532.00
2019-04-04T13:02:42.157Z,3100.00
2019-04-04T13:03:41.673Z,2776.00
2019-04-04T13:04:41.728Z,2576.00
2019-04-04T13:05:41.905Z,2520.00
2019-04-04T13:06:42.075Z,2532.00
2019-04-04T13:07:42.242Z,2468.00
2019-04-04T13:08:42.677Z,2316.00
2019-04-04T13:09:43.162Z,2360.00
2019-04-04T13:10:42.828Z,2852.00
2019-04-04T13:11:43.018Z,3592.00
2019-04-04T13:12:43.256Z,4208.00
2019-04-04T13:13:44.158Z,4596.00
2019-04-04T13:14:44.652Z,4760.00
2019-04-04T13:15:43.944Z,4872.00
2019-04-04T13:16:44.102Z,4848.00
2019-04-04T13:17:44.261Z,4504.00
2019-04-04T13:18:44.408Z,3888.00
2019-04-04T13:19:44.565Z,3336.00
2019-04-04T13:20:45.659Z,2860.00
2019-04-04T13:21:44.953Z,2468.00
2019-04-04T13:22:45.656Z,2324.00
2019-04-04T13:23:46.158Z,2324.00
2019-04-04T13:24:45.530Z,2404.00
2019-04-04T13:25:45.684Z,2376.00
2019-04-04T13:26:45.882Z,2336.00
2019-04-04T13:27:46.079Z,2372.00
2019-04-04T13:28:46.262Z,2500.00
2019-04-04T13:29:46.466Z,2736.00
2019-04-04T13:30:46.675Z,2992.00
2019-04-04T13:31:46.847Z,3132.00
2019-04-04T13:32:47.037Z,3156.00
2019-04-04T13:33:47.210Z,3244.00
2019-04-04T13:34:58.713Z,3372.00
2019-04-04T13:35:50.165Z,3436.00
2019-04-04T13:36:48.704Z,3480.00
2019-04-04T13:37:48.178Z,3536.00
2019-04-04T13:38:48.194Z,3544.00
2019-04-04T13:39:48.349Z,3560.00
2019-04-04T13:40:48.678Z,3588.00
2019-04-04T13:41:49.669Z,3604.00
2019-04-04T13:42:48.947Z,3572.00
2019-04-04T13:43:49.152Z,3568.00
2019-04-04T13:44:50.667Z,3688.00
2019-04-04T13:45:50.555Z,3800.00
2019-04-04T13:46:50.698Z,3740.00
2019-04-04T13:47:50.212Z,3488.00
2019-04-04T13:48:50.663Z,3244.00
2019-04-04T13:49:51.185Z,3060.00
2019-04-04T13:50:51.160Z,2960.00
2019-04-04T13:51:52.720Z,2960.00
2019-04-04T13:52:51.788Z,3032.00
2019-04-04T13:53:51.667Z,3136.00
2019-04-04T13:54:51.052Z,3276.00
2019-04-04T13:55:52.168Z,3276.00
2019-04-04T13:56:52.168Z,3248.00
2019-04-04T13:57:51.595Z,3304.00
2019-04-04T13:58:52.667Z,3476.00
2019-04-04T13:59:51.940Z,3624.00
2019-04-04T14:00:52.110Z,3692.00
2019-04-04T14:01:52.300Z,3728.00
2019-04-04T14:02:52.504Z,3784.00
2019-04-04T14:03:52.705Z,3792.00
2019-04-04T14:04:55.073Z,3740.00
2019-04-04T14:05:54.003Z,3676.00
2019-04-04T14:06:53.662Z,3624.00
2019-04-04T14:07:53.327Z,3612.00
2019-04-04T14:08:53.560Z,3744.00
2019-04-04T14:09:53.741Z,3936.00
2019-04-04T14:10:58.372Z,4104.00
2019-04-04T14:11:55.059Z,4188.00
2019-04-04T14:12:55.306Z,4160.00
2019-04-04T14:13:54.447Z,3916.00
2019-04-04T14:14:54.697Z,3708.00
2019-04-04T14:15:55.185Z,3724.00
2019-04-04T14:16:55.693Z,3804.00
2019-04-04T14:17:55.327Z,3644.00
2019-04-04T14:18:55.497Z,3452.00
2019-04-04T14:19:56.194Z,3504.00
2019-04-04T14:21:03.447Z,3564.00
2019-04-04T14:21:57.986Z,3392.00
2019-04-04T14:22:56.105Z,3128.00
2019-04-04T14:23:57.020Z,2932.00
2019-04-04T14:24:57.512Z,2764.00
2019-04-04T14:25:59.612Z,2708.00
2019-04-04T14:26:56.829Z,2736.00
2019-04-04T14:27:58.224Z,2832.00
2019-04-04T14:28:58.152Z,2912.00
2019-04-04T14:29:57.299Z,3024.00
2019-04-04T14:30:57.700Z,3292.00
2019-04-04T14:31:57.631Z,3692.00
2019-04-04T14:32:58.667Z,4180.00
2019-04-04T14:33:58.692Z,4596.00
2019-04-04T14:34:58.096Z,4868.00
2019-04-04T14:35:58.292Z,5028.00
2019-04-04T14:36:59.181Z,5084.00
2019-04-04T14:37:59.187Z,4944.00
2019-04-04T14:38:59.692Z,4860.00
2019-04-04T14:39:59.698Z,4700.00
2019-04-04T14:41:10.482Z,4588.00
2019-04-04T14:42:01.223Z,4632.00
2019-04-04T14:42:59.337Z,4836.00
2019-04-04T14:44:00.710Z,5096.00
2019-04-04T14:45:02.278Z,5160.00
2019-04-04T14:46:00.680Z,4836.00
2019-04-04T14:47:00.113Z,4488.00
2019-04-04T14:48:00.305Z,4232.00
2019-04-04T14:49:00.500Z,4028.00
2019-04-04T14:50:00.677Z,3920.00
2019-04-04T14:51:00.876Z,3976.00
2019-04-04T14:52:01.681Z,4044.00
2019-04-04T14:53:01.221Z,3880.00
2019-04-04T14:54:01.430Z,3504.00
2019-04-04T14:55:01.629Z,3160.00
2019-04-04T14:56:02.718Z,2912.00
2019-04-04T14:57:02.711Z,2780.00
2019-04-04T14:58:02.110Z,2764.00
2019-04-04T14:59:02.291Z,2804.00
2019-04-04T15:00:02.513Z,2780.00
2019-04-04T15:01:03.183Z,2680.00
2019-04-04T15:02:03.682Z,2520.00
2019-04-04T15:03:03.129Z,2356.00
2019-04-04T15:04:03.312Z,2220.00
2019-04-04T15:05:04.170Z,2096.00
2019-04-04T15:06:04.186Z,1964.00
2019-04-04T15:07:03.818Z,1880.00
2019-04-04T15:08:04.192Z,1856.00
2019-04-04T15:09:04.681Z,1880.00
2019-04-04T15:10:05.167Z,1912.00
2019-04-04T15:11:04.553Z,1940.00
2019-04-04T15:12:04.729Z,1976.00
2019-04-04T15:13:04.937Z,2040.00
2019-04-04T15:14:05.126Z,2104.00
2019-04-04T15:15:05.294Z,2108.00
2019-04-04T15:16:06.174Z,2060.00
2019-04-04T15:17:06.672Z,2036.00
2019-04-04T15:18:05.951Z,2048.00
2019-04-04T15:19:06.675Z,2032.00
2019-04-04T15:20:06.341Z,1984.00
2019-04-04T15:21:06.509Z,1964.00
2019-04-04T15:22:07.168Z,1980.00
2019-04-04T15:23:06.860Z,2076.00
2019-04-04T15:24:07.680Z,2212.00
2019-04-04T15:25:07.221Z,2352.00
2019-04-04T15:26:09.635Z,2556.00
2019-04-04T15:27:07.617Z,2840.00
2019-04-04T15:28:08.177Z,3152.00
2019-04-04T15:29:08.673Z,3388.00
2019-04-04T15:30:08.091Z,3508.00
2019-04-04T15:31:08.275Z,3548.00
2019-04-04T15:32:08.432Z,3492.00
2019-04-04T15:33:08.626Z,3356.00
2019-04-04T15:34:08.820Z,3212.00
2019-04-04T15:35:09.004Z,3088.00
2019-04-04T15:36:09.292Z,3060.00
2019-04-04T15:37:09.348Z,3172.00
2019-04-04T15:38:09.544Z,3356.00
2019-04-04T15:39:10.678Z,3544.00
2019-04-04T15:40:10.675Z,3708.00
2019-04-04T15:41:10.223Z,3808.00
2019-04-04T15:42:10.289Z,3796.00
2019-04-04T15:43:10.456Z,3612.00
2019-04-04T15:44:10.647Z,3332.00
2019-04-04T15:45:10.804Z,3116.00
2019-04-04T15:46:11.590Z,3052.00
2019-04-04T15:47:12.221Z,3104.00
2019-04-04T15:48:11.370Z,3160.00
2019-04-04T15:49:12.184Z,3112.00
2019-04-04T15:50:11.694Z,2936.00
2019-04-04T15:51:11.870Z,2692.00
2019-04-04T15:52:12.057Z,2544.00
2019-04-04T15:53:12.207Z,2524.00
2019-04-04T15:54:12.348Z,2580.00
2019-04-04T15:55:13.220Z,2664.00
2019-04-04T15:56:13.687Z,2768.00
2019-04-04T15:57:13.233Z,2852.00
2019-04-04T15:58:13.678Z,2816.00
2019-04-04T15:59:13.297Z,2704.00
2019-04-04T16:00:13.455Z,2564.00
2019-04-04T16:01:13.604Z,2404.00
2019-04-04T16:02:13.769Z,2252.00
2019-04-04T16:03:13.918Z,2120.00
2019-04-04T16:04:14.100Z,1972.00
2019-04-04T16:05:14.244Z,1844.00
2019-04-04T16:06:15.197Z,1736.00
2019-04-04T16:07:14.583Z,1640.00
2019-04-04T16:08:14.745Z,1560.00
2019-04-04T16:09:15.203Z,1480.00
2019-04-04T16:10:15.090Z,1400.00
2019-04-04T16:11:16.291Z,1336.00
2019-04-04T16:12:16.206Z,1308.00
2019-04-04T16:13:15.615Z,1296.00
2019-04-04T16:14:15.790Z,1328.00
2019-04-04T16:15:16.681Z,1384.00
2019-04-04T16:16:16.690Z,1460.00
2019-04-04T16:17:17.179Z,1500.00
2019-04-04T16:18:17.182Z,1480.00
2019-04-04T16:19:16.603Z,1396.00
2019-04-04T16:20:17.741Z,1308.00
2019-04-04T16:21:17.681Z,1224.00
2019-04-04T16:22:17.111Z,1128.00
2019-04-04T16:23:17.268Z,1032.00
2019-04-04T16:24:17.453Z,928.00
2019-04-04T16:25:17.614Z,832.00
2019-04-04T16:26:17.763Z,752.00
2019-04-04T16:27:17.942Z,704.00
2019-04-04T16:28:18.093Z,692.00
2019-04-04T16:29:18.290Z,688.00
2019-04-04T16:30:18.445Z,672.00
2019-04-04T16:31:18.589Z,652.00
2019-04-04T16:32:19.686Z,636.00
2019-04-04T16:33:18.950Z,636.00
2019-04-04T16:34:19.189Z,668.00
2019-04-04T16:35:19.341Z,740.00
2019-04-04T16:36:19.501Z,844.00
2019-04-04T16:37:20.647Z,960.00
2019-04-04T16:38:22.885Z,1072.00
2019-04-04T16:39:20.690Z,1176.00
2019-04-04T16:40:20.107Z,1256.00
2019-04-04T16:41:20.289Z,1320.00
2019-04-04T16:42:20.452Z,1364.00
2019-04-04T16:43:20.611Z,1380.00
2019-04-04T16:44:21.694Z,1376.00
2019-04-04T16:45:21.239Z,1384.00
2019-04-04T16:46:21.165Z,1384.00
2019-04-04T16:47:21.373Z,1392.00
2019-04-04T16:48:21.466Z,1376.00
2019-04-04T16:49:21.629Z,1336.00
2019-04-04T16:50:21.794Z,1304.00
2019-04-04T16:51:21.951Z,1280.00
2019-04-04T16:52:22.128Z,1280.00
2019-04-04T16:53:22.299Z,1280.00
2019-04-04T16:54:22.466Z,1244.00
2019-04-04T16:55:22.699Z,1176.00
2019-04-04T16:56:23.701Z,1076.00
2019-04-04T16:57:23.692Z,980.00
2019-04-04T16:58:23.680Z,900.00
2019-04-04T16:59:24.231Z,844.00
2019-04-04T17:00:23.651Z,816.00
2019-04-04T17:01:23.778Z,824.00
2019-04-04T17:02:23.893Z,836.00
2019-04-04T17:03:24.694Z,840.00
2019-04-04T17:04:25.210Z,832.00
2019-04-04T17:05:24.375Z,812.00
2019-04-04T17:06:25.170Z,784.00
2019-04-04T17:07:25.678Z,752.00
2019-04-04T17:08:24.834Z,740.00
2019-04-04T17:09:25.004Z,740.00
2019-04-04T17:10:27.965Z,748.00
2019-04-04T17:11:25.696Z,764.00
2019-04-04T17:12:25.603Z,780.00
2019-04-04T17:13:25.786Z,796.00
2019-04-04T17:14:26.040Z,800.00
2019-04-04T17:15:26.713Z,792.00
2019-04-04T17:16:26.344Z,768.00
2019-04-04T17:17:27.201Z,716.00
2019-04-04T17:18:27.809Z,672.00
2019-04-04T17:19:26.939Z,656.00
2019-04-04T17:20:27.132Z,664.00
2019-04-04T17:21:28.200Z,688.00
2019-04-04T17:22:29.223Z,724.00
2019-04-04T17:23:28.641Z,756.00
2019-04-04T17:24:27.878Z,804.00
2019-04-04T17:25:28.210Z,872.00
2019-04-04T17:26:28.262Z,948.00
2019-04-04T17:27:28.744Z,1020.00
2019-04-04T17:28:28.596Z,1056.00
2019-04-04T17:29:29.699Z,1072.00
2019-04-04T17:30:30.119Z,1036.00
2019-04-04T17:31:29.537Z,964.00
2019-04-04T17:32:29.422Z,880.00
2019-04-04T17:33:30.252Z,800.00
2019-04-04T17:34:30.760Z,728.00
2019-04-04T17:35:30.738Z,668.00
2019-04-04T17:36:30.530Z,608.00
2019-04-04T17:37:31.205Z,552.00
2019-04-04T17:38:30.551Z,508.00
2019-04-04T17:39:30.603Z,464.00
2019-04-04T17:40:31.699Z,416.00
2019-04-04T17:41:31.983Z,384.00
2019-04-04T17:42:33.473Z,352.00
2019-04-04T17:43:32.456Z,332.00
2019-04-04T17:44:31.786Z,312.00
2019-04-04T17:45:32.709Z,292.00
2019-04-04T17:46:32.699Z,268.00
2019-04-04T17:47:31.976Z,248.00
2019-04-04T17:48:33.014Z,232.00
2019-04-04T17:49:33.345Z,216.00
2019-04-04T17:50:33.358Z,204.00
2019-04-04T17:51:32.978Z,192.00
2019-04-04T17:52:33.104Z,180.00
2019-04-04T17:53:33.159Z,160.00
2019-04-04T17:54:33.523Z,152.00
2019-04-04T17:55:33.451Z,144.00
2019-04-04T17:56:34.198Z,140.00
2019-04-04T17:57:34.969Z,136.00
2019-04-04T17:58:34.509Z,120.00
2019-04-04T17:59:34.207Z,108.00
2019-04-04T18:00:35.221Z,100.00
2019-04-04T18:01:35.211Z,84.00
2019-04-04T18:02:35.697Z,76.00
2019-04-04T18:03:35.696Z,64.00
2019-04-04T18:04:47.561Z,60.00
2019-04-04T18:05:35.350Z,52.00
2019-04-04T18:06:35.530Z,48.00
2019-04-04T18:07:35.666Z,48.00
2019-04-04T18:08:35.818Z,40.00
2019-04-04T18:09:36.214Z,36.00
2019-04-04T18:10:36.697Z,32.00
2019-04-04T18:11:36.236Z,28.00
2019-04-04T18:12:40.626Z,24.00
2019-04-04T18:13:37.618Z,20.00
2019-04-04T18:14:36.817Z,20.00
2019-04-04T18:15:37.028Z,20.00
2019-04-04T18:16:37.697Z,12.00
2019-04-04T18:17:37.365Z,12.00
2019-04-04T18:18:37.555Z,12.00
2019-04-04T18:19:37.763Z,12.00
2019-04-04T18:20:37.957Z,8.00
2019-04-04T18:21:38.732Z,8.00
2019-04-04T18:22:39.201Z,8.00
2019-04-04T18:23:38.497Z,4.00
2019-04-04T18:24:39.227Z,8.00
2019-04-04T18:25:38.893Z,4.00
2019-04-04T18:26:39.728Z,4.00
2019-04-04T18:27:42.554Z,0.00
2019-04-04T18:28:40.228Z,4.00
2019-04-04T18:29:40.228Z,4.00
2019-04-04T18:30:40.219Z,0.00
2019-04-04T18:31:39.931Z,4.00
2019-04-04T18:32:40.121Z,4.00
2019-04-04T18:33:41.246Z,4.00
2019-04-04T18:34:40.759Z,0.00
2019-04-04T18:35:40.579Z,0.00
2019-04-04T18:36:40.781Z,0.00
2019-04-04T18:37:41.713Z,0.00
2019-04-04T18:38:41.392Z,0.00
2019-04-04T18:39:41.320Z,0.00
2019-04-04T18:40:41.727Z,0.00
2019-04-04T18:41:41.645Z,0.00
2019-04-04T18:42:52.485Z,0.00
2019-04-04T18:43:43.970Z,0.00
2019-04-04T18:44:42.095Z,0.00
2019-04-04T18:45:42.308Z,0.00
2019-04-04T18:46:43.204Z,0.00
2019-04-04T18:47:42.594Z,0.00
2019-04-04T18:48:44.704Z,0.00
2019-04-04T18:49:43.713Z,0.00
2019-04-04T18:50:43.158Z,0.00
2019-04-04T18:51:43.347Z,0.00
2019-04-04T18:52:44.207Z,0.00
2019-04-04T18:53:44.210Z,0.00
2019-04-04T18:54:43.848Z,0.00
2019-04-04T18:55:44.719Z,0.00
2019-04-04T18:56:44.245Z,0.00
2019-04-04T18:57:44.413Z,0.00
2019-04-04T18:58:44.571Z,0.00
2019-04-04T18:59:44.720Z,0.00
2019-04-04T19:00:44.872Z,0.00
2019-04-04T19:01:45.214Z,0.00
2019-04-04T19:02:45.352Z,0.00
2019-04-04T19:03:45.499Z,0.00
2019-04-04T19:04:46.223Z,0.00
2019-04-04T19:05:46.707Z,0.00
2019-04-04T19:06:46.097Z,0.00
2019-04-04T19:07:47.205Z,0.00
2019-04-04T19:08:46.538Z,0.00
2019-04-04T19:09:47.204Z,0.00
2019-04-04T19:10:46.852Z,4.00
2019-04-04T19:11:46.996Z,0.00
2019-04-04T19:12:47.205Z,0.00
2019-04-04T19:13:47.352Z,0.00
2019-04-04T19:14:47.507Z,0.00
2019-04-04T19:15:47.675Z,0.00
2019-04-04T19:16:47.856Z,0.00
2019-04-04T19:17:48.230Z,0.00
2019-04-04T19:18:48.722Z,0.00
2019-04-04T19:19:49.204Z,0.00
2019-04-04T19:20:48.499Z,0.00
2019-04-04T19:21:49.671Z,0.00
2019-04-04T19:22:49.222Z,0.00
2019-04-04T19:23:49.788Z,4.00
2019-04-04T19:24:50.367Z,0.00
2019-04-04T19:25:50.215Z,4.00
2019-04-04T19:26:49.711Z,0.00
2019-04-04T19:27:49.912Z,0.00
2019-04-04T19:28:50.714Z,0.00
2019-04-04T19:29:51.204Z,0.00
2019-04-04T19:30:50.390Z,0.00
2019-04-04T19:31:50.591Z,0.00
2019-04-04T19:32:51.719Z,0.00
2019-04-04T19:33:51.713Z,0.00
2019-04-04T19:34:52.245Z,0.00
2019-04-04T19:35:51.445Z,0.00
2019-04-04T19:36:52.177Z,0.00
2019-04-04T19:38:00.096Z,0.00
2019-04-04T19:38:53.900Z,0.00
2019-04-04T19:39:54.363Z,0.00
2019-04-04T19:40:53.181Z,0.00
2019-04-04T19:41:53.236Z,0.00
2019-04-04T19:42:53.208Z,0.00
2019-04-04T19:43:53.713Z,0.00
2019-04-04T19:44:53.893Z,0.00
2019-04-04T19:45:54.109Z,0.00
2019-04-04T19:46:53.715Z,0.00
2019-04-04T19:47:53.484Z,0.00
2019-04-04T19:48:53.725Z,0.00
2019-04-04T19:49:54.715Z,0.00
2019-04-04T19:50:54.182Z,0.00
2019-04-04T19:51:54.718Z,0.00
2019-04-04T19:52:54.473Z,0.00
2019-04-04T19:53:55.216Z,0.00
2019-04-04T19:54:54.862Z,0.00
2019-04-04T19:55:55.720Z,0.00
2019-04-04T19:56:55.206Z,0.00
2019-04-04T19:57:55.326Z,0.00
2019-04-04T19:58:55.479Z,0.00
2019-04-04T19:59:55.705Z,0.00
2019-04-04T20:00:55.901Z,0.00
2019-04-04T20:01:56.101Z,0.00
2019-04-04T20:02:56.304Z,0.00
2019-04-04T20:03:56.481Z,0.00
2019-04-04T20:04:56.650Z,0.00
2019-04-04T20:05:56.821Z,0.00
2019-04-04T20:06:56.977Z,0.00
2019-04-04T20:07:57.184Z,0.00
2019-04-04T20:08:58.205Z,0.00
2019-04-04T20:09:57.472Z,0.00
2019-04-04T20:10:57.695Z,0.00
2019-04-04T20:11:57.879Z,0.00
2019-04-04T20:12:58.219Z,0.00
2019-04-04T20:13:58.258Z,0.00
2019-04-04T20:14:58.475Z,0.00
2019-04-04T20:15:58.674Z,0.00
2019-04-04T20:16:59.709Z,0.00
2019-04-04T20:17:59.004Z,0.00
2019-04-04T20:18:59.193Z,0.00
2019-04-04T20:19:59.419Z,0.00
2019-04-04T20:20:59.505Z,0.00
2019-04-04T20:21:59.713Z,0.00
2019-04-04T20:22:59.923Z,0.00
2019-04-04T20:24:00.131Z,0.00
2019-04-04T20:25:00.370Z,0.00
2019-04-04T20:26:00.481Z,0.00
2019-04-04T20:27:00.604Z,0.00
2019-04-04T20:28:01.879Z,0.00
2019-04-04T20:29:01.099Z,0.00
2019-04-04T20:30:01.747Z,0.00
2019-04-04T20:31:01.368Z,0.00
2019-04-04T20:32:01.522Z,0.00
2019-04-04T20:33:01.642Z,0.00
2019-04-04T20:34:22.835Z,0.00
2019-04-04T20:35:01.997Z,0.00
2019-04-04T20:36:02.147Z,0.00
2019-04-04T20:37:02.291Z,0.00
2019-04-04T20:38:03.229Z,0.00
2019-04-04T20:39:02.633Z,0.00
2019-04-04T20:40:02.777Z,0.00
2019-04-04T20:41:02.903Z,0.00
2019-04-04T20:42:03.020Z,0.00
2019-04-04T20:43:03.234Z,0.00
2019-04-04T20:44:03.305Z,0.00
2019-04-04T20:45:03.493Z,0.00
2019-04-04T20:46:04.217Z,0.00
2019-04-04T20:47:03.881Z,0.00
2019-04-04T20:48:04.231Z,0.00
2019-04-04T20:49:05.214Z,0.00
2019-04-04T20:50:04.735Z,0.00
2019-04-04T20:51:04.667Z,0.00
2019-04-04T20:52:04.840Z,0.00
2019-04-04T20:53:04.997Z,0.00
2019-04-04T20:54:05.233Z,0.00
2019-04-04T20:55:05.382Z,0.00
2019-04-04T20:56:05.543Z,0.00
2019-04-04T20:57:05.767Z,0.00
2019-04-04T20:58:06.721Z,0.00
2019-04-04T20:59:06.089Z,0.00
2019-04-04T21:00:07.263Z,0.00
2019-04-04T21:01:06.737Z,0.00
2019-04-04T21:02:06.633Z,0.00
2019-04-04T21:03:06.786Z,0.00
2019-04-04T21:04:06.940Z,4.00
2019-04-04T21:05:07.169Z,0.00
2019-04-04T21:06:07.362Z,0.00
2019-04-04T21:07:07.534Z,0.00
2019-04-04T21:08:08.222Z,0.00
2019-04-04T21:09:07.851Z,0.00
2019-04-04T21:10:08.034Z,0.00
2019-04-04T21:11:08.178Z,0.00
2019-04-04T21:12:11.156Z,0.00
2019-04-04T21:13:09.260Z,0.00
2019-04-04T21:14:08.812Z,0.00
2019-04-04T21:15:09.737Z,0.00
2019-04-04T21:16:09.116Z,0.00
2019-04-04T21:17:09.730Z,0.00
2019-04-04T21:18:09.410Z,0.00
2019-04-04T21:19:09.629Z,0.00
2019-04-04T21:20:09.819Z,0.00
2019-04-04T21:21:09.998Z,0.00
2019-04-04T21:22:10.711Z,0.00
2019-04-04T21:23:10.394Z,0.00
2019-04-04T21:24:11.217Z,0.00
2019-04-04T21:25:10.778Z,0.00
2019-04-04T21:26:11.010Z,0.00
2019-04-04T21:27:11.234Z,0.00
2019-04-04T21:28:12.223Z,0.00
2019-04-04T21:29:11.671Z,0.00
2019-04-04T21:30:11.917Z,0.00
2019-04-04T21:31:12.730Z,0.00
2019-04-04T21:32:12.253Z,0.00
2019-04-04T21:33:12.449Z,0.00
2019-04-04T21:34:12.656Z,0.00
2019-04-04T21:35:12.850Z,0.00
2019-04-04T21:36:13.048Z,0.00
2019-04-04T21:37:13.233Z,0.00
2019-04-04T21:38:14.225Z,0.00
2019-04-04T21:39:13.730Z,0.00
2019-04-04T21:40:13.785Z,0.00
2019-04-04T21:41:13.979Z,0.00
2019-04-04T21:42:14.166Z,0.00
2019-04-04T21:43:14.379Z,0.00
2019-04-04T21:44:15.222Z,0.00
2019-04-04T21:45:15.454Z,0.00
2019-04-04T21:46:15.915Z,0.00
2019-04-04T21:47:15.742Z,0.00
2019-04-04T21:48:15.267Z,0.00
2019-04-04T21:49:16.216Z,0.00
2019-04-04T21:50:15.615Z,0.00
2019-04-04T21:51:15.828Z,0.00
2019-04-04T21:52:15.996Z,0.00
2019-04-04T21:53:16.140Z,0.00
2019-04-04T21:54:16.316Z,0.00
2019-04-04T21:55:16.536Z,0.00
2019-04-04T21:56:16.692Z,0.00
2019-04-04T21:57:17.233Z,0.00
2019-04-04T21:58:17.034Z,0.00
2019-04-04T21:59:17.193Z,0.00
2019-04-04T22:00:17.738Z,0.00
2019-04-04T22:01:17.540Z,0.00
2019-04-04T22:02:18.242Z,0.00
2019-04-04T22:03:17.932Z,0.00
2019-04-04T22:04:18.256Z,0.00
2019-04-04T22:05:18.334Z,0.00
2019-04-04T22:06:18.532Z,0.00
2019-04-04T22:07:19.272Z,0.00
2019-04-04T22:08:18.971Z,0.00
2019-04-04T22:09:19.264Z,0.00
2019-04-04T22:10:19.350Z,0.00
2019-04-04T22:11:19.567Z,0.00
2019-04-04T22:12:19.783Z,0.00
2019-04-04T22:13:19.991Z,0.00
2019-04-04T22:14:21.955Z,0.00
2019-04-04T22:15:21.454Z,0.00
2019-04-04T22:16:21.258Z,0.00
2019-04-04T22:17:21.743Z,0.00
2019-04-04T22:18:21.058Z,0.00
2019-04-04T22:19:21.267Z,0.00
2019-04-04T22:20:22.293Z,0.00
2019-04-04T22:21:21.595Z,0.00
2019-04-04T22:22:22.745Z,0.00